createdAt,value
2019-05-30T00:01:02.177Z,11.30
2019-05-30T00:03:34.483Z,11.30
2019-05-30T00:06:06.907Z,11.30
2019-05-30T00:08:38.981Z,11.30
2019-05-30T00:11:10.978Z,11.30
2019-05-30T00:13:43.124Z,11.30
2019-05-30T00:16:15.815Z,11.30
2019-05-30T00:18:47.830Z,11.30
2019-05-30T00:21:20.076Z,11.20
2019-05-30T00:23:52.109Z,11.20
2019-05-30T00:26:25.251Z,11.30
2019-05-30T00:28:58.234Z,11.20
2019-05-30T00:31:30.841Z,11.10
2019-05-30T00:34:04.108Z,11.10
2019-05-30T00:36:36.425Z,11.10
2019-05-30T00:39:08.569Z,11.10
2019-05-30T00:41:40.649Z,11.10
2019-05-30T00:44:12.776Z,11.00
2019-05-30T00:46:44.939Z,11.00
2019-05-30T00:49:17.122Z,11.00
2019-05-30T00:51:49.523Z,11.00
2019-05-30T00:54:21.599Z,11.00
2019-05-30T00:56:53.629Z,11.00
2019-05-30T00:59:25.616Z,11.00
2019-05-30T01:01:58.567Z,11.00
2019-05-30T01:04:30.638Z,10.90
2019-05-30T01:07:03.583Z,10.90
2019-05-30T01:09:35.768Z,10.80
2019-05-30T01:12:07.913Z,10.80
2019-05-30T01:14:39.999Z,10.80
2019-05-30T01:17:12.150Z,10.80
2019-05-30T01:19:44.269Z,10.60
2019-05-30T01:22:16.298Z,10.60
2019-05-30T01:24:48.327Z,10.60
2019-05-30T01:27:20.312Z,10.60
2019-05-30T01:29:52.453Z,10.60
2019-05-30T01:32:30.673Z,10.60
2019-05-30T01:35:03.876Z,10.60
2019-05-30T01:37:35.952Z,10.60
2019-05-30T01:40:08.888Z,10.60
2019-05-30T01:42:41.330Z,10.60
2019-05-30T01:45:13.436Z,10.60
2019-05-30T01:47:45.601Z,10.60
2019-05-30T01:50:19.366Z,10.60
2019-05-30T01:52:51.559Z,10.60
2019-05-30T01:55:23.622Z,10.60
2019-05-30T01:57:55.609Z,10.50
2019-05-30T02:00:38.312Z,10.60
2019-05-30T02:03:10.419Z,10.60
2019-05-30T02:05:42.512Z,10.50
2019-05-30T02:08:14.575Z,10.60
2019-05-30T02:10:46.586Z,10.60
2019-05-30T02:13:18.692Z,10.50
2019-05-30T02:15:50.873Z,10.50
2019-05-30T02:18:22.949Z,10.50
2019-05-30T02:20:54.955Z,10.50
2019-05-30T02:23:27.234Z,10.50
2019-05-30T02:26:00.117Z,10.50
2019-05-30T02:28:32.458Z,10.50
2019-05-30T02:34:10.131Z,10.50
2019-05-30T02:36:42.296Z,10.60
2019-05-30T02:39:15.409Z,10.60
2019-05-30T02:41:47.589Z,10.50
2019-05-30T02:44:19.723Z,10.50
2019-05-30T02:46:54.742Z,10.50
2019-05-30T02:49:27.127Z,10.50
2019-05-30T02:51:59.124Z,10.50
2019-05-30T02:54:31.181Z,10.50
2019-05-30T02:57:03.621Z,10.50
2019-05-30T02:59:36.692Z,10.50
2019-05-30T03:02:13.799Z,10.50
2019-05-30T03:04:42.445Z,10.50
2019-05-30T03:07:14.486Z,10.50
2019-05-30T03:09:46.704Z,10.50
2019-05-30T03:12:18.770Z,10.50
2019-05-30T03:14:50.939Z,10.50
2019-05-30T03:17:23.037Z,10.40
2019-05-30T03:19:55.179Z,10.50
2019-05-30T03:22:27.363Z,10.40
2019-05-30T03:24:59.394Z,10.50
2019-05-30T03:27:31.427Z,10.40
2019-05-30T03:30:05.145Z,10.40
2019-05-30T03:35:24.000Z,10.40
2019-05-30T03:37:46.018Z,10.40
2019-05-30T03:40:19.113Z,10.40
2019-05-30T03:42:51.997Z,10.40
2019-05-30T03:45:26.321Z,10.40
2019-05-30T03:48:05.027Z,10.40
2019-05-30T03:50:40.172Z,10.40
2019-05-30T03:53:14.369Z,10.40
2019-05-30T03:55:52.388Z,10.50
2019-05-30T03:58:36.863Z,10.50
2019-05-30T04:01:14.863Z,10.50
2019-05-30T04:04:16.650Z,10.50
2019-05-30T04:06:55.139Z,10.50
2019-05-30T04:09:29.110Z,10.60
2019-05-30T04:12:26.132Z,10.60
2019-05-30T04:15:07.827Z,10.60
2019-05-30T04:17:40.878Z,10.60
2019-05-30T04:20:14.705Z,10.60
2019-05-30T04:22:46.586Z,10.60
2019-05-30T04:25:18.771Z,10.60
2019-05-30T04:27:50.896Z,10.60
2019-05-30T04:30:23.555Z,10.60
2019-05-30T04:33:13.355Z,10.60
2019-05-30T04:35:29.367Z,10.60
2019-05-30T04:38:01.298Z,10.60
2019-05-30T04:40:33.347Z,10.70
2019-05-30T04:43:05.402Z,10.80
2019-05-30T04:45:37.569Z,10.80
2019-05-30T04:48:09.887Z,11.00
2019-05-30T04:50:41.998Z,11.30
2019-05-30T04:53:14.160Z,11.80
2019-05-30T04:55:46.399Z,12.40
2019-05-30T04:58:24.221Z,13.10
2019-05-30T05:00:55.605Z,13.60
2019-05-30T05:03:45.017Z,14.00
2019-05-30T05:06:03.205Z,14.50
2019-05-30T05:08:35.363Z,14.70
2019-05-30T05:11:12.265Z,14.90
2019-05-30T05:13:41.613Z,15.00
2019-05-30T05:16:29.487Z,15.20
2019-05-30T05:18:47.643Z,15.40
2019-05-30T05:21:20.933Z,15.50
2019-05-30T05:23:53.051Z,15.70
2019-05-30T05:26:25.174Z,16.10
2019-05-30T05:28:57.270Z,16.40
2019-05-30T05:31:29.467Z,16.70
2019-05-30T05:34:01.632Z,16.80
2019-05-30T05:36:33.738Z,16.90
2019-05-30T05:39:07.638Z,17.10
2019-05-30T05:41:42.871Z,17.30
2019-05-30T05:44:16.139Z,17.50
2019-05-30T05:46:48.552Z,17.50
2019-05-30T05:49:20.660Z,17.50
2019-05-30T05:51:52.642Z,17.60
2019-05-30T05:54:25.073Z,17.60
2019-05-30T05:56:57.072Z,17.70
2019-05-30T05:59:29.358Z,17.80
2019-05-30T06:02:01.313Z,17.90
2019-05-30T06:04:33.551Z,18.20
2019-05-30T06:07:05.574Z,18.40
2019-05-30T06:09:38.004Z,18.40
2019-05-30T06:12:09.879Z,18.40
2019-05-30T06:14:42.006Z,18.50
2019-05-30T06:17:14.103Z,18.40
2019-05-30T06:19:47.028Z,18.40
2019-05-30T06:22:19.326Z,18.40
2019-05-30T06:24:51.425Z,18.40
2019-05-30T06:27:24.019Z,18.60
2019-05-30T06:29:56.117Z,18.60
2019-05-30T06:32:28.880Z,18.80
2019-05-30T06:35:01.142Z,18.80
2019-05-30T06:37:33.250Z,18.80
2019-05-30T06:40:06.539Z,18.80
2019-05-30T06:42:38.619Z,18.90
2019-05-30T06:45:11.031Z,18.80
2019-05-30T06:47:43.323Z,18.70
2019-05-30T06:50:15.479Z,18.80
2019-05-30T06:52:49.576Z,18.90
2019-05-30T06:55:21.580Z,18.80
2019-05-30T06:57:53.700Z,18.90
2019-05-30T07:00:26.449Z,19.00
2019-05-30T07:02:58.744Z,19.20
2019-05-30T07:05:32.812Z,19.30
2019-05-30T07:08:04.753Z,19.40
2019-05-30T07:10:36.995Z,19.50
2019-05-30T07:13:09.314Z,19.50
2019-05-30T07:15:41.529Z,19.50
2019-05-30T07:18:13.612Z,19.50
2019-05-30T07:20:45.796Z,19.50
2019-05-30T07:23:18.024Z,19.50
2019-05-30T07:25:50.001Z,19.50
2019-05-30T07:28:23.701Z,19.70
2019-05-30T07:30:55.879Z,19.80
2019-05-30T07:33:28.064Z,19.80
2019-05-30T07:36:00.130Z,19.90
2019-05-30T07:38:32.610Z,19.90
2019-05-30T07:41:04.825Z,20.10
2019-05-30T07:43:38.046Z,20.30
2019-05-30T07:46:13.011Z,20.60
2019-05-30T07:48:45.725Z,20.80
2019-05-30T07:51:18.241Z,20.40
2019-05-30T07:53:51.707Z,20.20
2019-05-30T07:56:24.401Z,20.30
2019-05-30T07:58:56.756Z,20.30
2019-05-30T08:01:30.568Z,20.50
2019-05-30T08:04:02.845Z,20.60
2019-05-30T08:06:37.982Z,20.60
2019-05-30T08:09:16.229Z,20.60
2019-05-30T08:12:01.932Z,20.60
2019-05-30T08:14:37.379Z,20.70
2019-05-30T08:17:12.137Z,20.70
2019-05-30T08:19:54.540Z,20.70
2019-05-30T08:22:44.439Z,20.70
2019-05-30T08:25:19.818Z,20.70
2019-05-30T08:27:55.121Z,20.80
2019-05-30T08:30:30.348Z,20.90
2019-05-30T08:33:09.342Z,20.80
2019-05-30T08:35:49.995Z,20.90
2019-05-30T08:38:35.355Z,20.90
2019-05-30T08:41:35.229Z,20.80
2019-05-30T08:44:19.611Z,21.00
2019-05-30T08:47:07.500Z,21.20
2019-05-30T08:50:45.719Z,21.10
2019-05-30T08:59:36.669Z,21.20
2019-05-30T09:02:21.088Z,21.00
2019-05-30T09:05:07.087Z,20.90
2019-05-30T09:07:55.530Z,20.70
2019-05-30T09:10:40.401Z,20.70
2019-05-30T09:13:25.198Z,20.90
2019-05-30T09:16:05.907Z,21.20
2019-05-30T09:18:56.795Z,21.30
2019-05-30T09:21:28.383Z,21.40
2019-05-30T09:24:01.476Z,21.30
2019-05-30T09:26:43.778Z,21.20
2019-05-30T09:29:25.590Z,21.10
2019-05-30T09:32:06.451Z,21.10
2019-05-30T09:34:42.038Z,21.10
2019-05-30T09:37:18.866Z,21.10
2019-05-30T09:39:51.744Z,21.20
2019-05-30T09:42:24.165Z,21.40
2019-05-30T09:44:57.825Z,21.40
2019-05-30T09:47:30.419Z,21.40
2019-05-30T09:50:03.902Z,21.40
2019-05-30T09:52:36.256Z,21.20
2019-05-30T09:55:10.388Z,21.10
2019-05-30T09:57:45.828Z,21.10
2019-05-30T10:00:38.272Z,21.00
2019-05-30T10:03:23.946Z,21.00
2019-05-30T10:06:28.959Z,21.00
2019-05-30T10:09:05.887Z,21.10
2019-05-30T10:11:45.617Z,21.10
2019-05-30T10:14:32.375Z,21.30
2019-05-30T10:17:13.190Z,21.30
2019-05-30T10:20:07.558Z,21.30
2019-05-30T10:22:47.043Z,21.40
2019-05-30T10:25:23.073Z,21.40
2019-05-30T10:28:06.369Z,21.40
2019-05-30T10:30:40.050Z,21.50
2019-05-30T10:33:17.591Z,21.60
2019-05-30T10:36:01.902Z,21.60
2019-05-30T10:38:37.006Z,21.60
2019-05-30T10:41:09.629Z,21.70
2019-05-30T10:43:42.164Z,21.60
2019-05-30T10:46:30.901Z,21.80
2019-05-30T10:49:13.518Z,21.90
2019-05-30T10:51:59.221Z,22.10
2019-05-30T10:55:03.743Z,22.30
2019-05-30T10:57:41.562Z,22.40
2019-05-30T11:00:25.361Z,22.50
2019-05-30T11:03:11.555Z,22.50
2019-05-30T11:05:53.194Z,22.50
2019-05-30T11:08:32.076Z,22.60
2019-05-30T11:11:15.463Z,22.50
2019-05-30T11:13:51.151Z,22.20
2019-05-30T11:16:30.478Z,21.90
2019-05-30T11:19:08.660Z,21.70
2019-05-30T11:21:52.687Z,21.60
2019-05-30T11:24:37.145Z,21.70
2019-05-30T11:27:20.044Z,21.70
2019-05-30T11:29:54.806Z,21.80
2019-05-30T11:32:35.433Z,21.80
2019-05-30T11:35:08.974Z,21.80
2019-05-30T11:37:42.339Z,21.90
2019-05-30T11:40:21.470Z,22.00
2019-05-30T11:43:00.221Z,22.00
2019-05-30T11:45:39.640Z,21.90
2019-05-30T11:48:19.737Z,22.00
2019-05-30T11:51:12.471Z,21.90
2019-05-30T11:54:06.015Z,21.90
2019-05-30T11:57:29.476Z,21.90
2019-05-30T12:00:02.052Z,21.90
2019-05-30T12:02:44.727Z,22.10
2019-05-30T12:05:20.360Z,22.20
2019-05-30T12:07:52.994Z,22.00
2019-05-30T12:10:26.153Z,21.90
2019-05-30T12:12:59.474Z,21.90
2019-05-30T12:15:32.367Z,22.00
2019-05-30T12:18:04.787Z,22.20
2019-05-30T12:20:38.654Z,22.20
2019-05-30T12:23:16.163Z,22.30
2019-05-30T12:25:51.985Z,22.50
2019-05-30T12:28:27.023Z,22.50
2019-05-30T12:31:03.200Z,22.50
2019-05-30T12:33:39.190Z,22.60
2019-05-30T12:36:11.725Z,22.60
2019-05-30T12:38:44.279Z,22.40
2019-05-30T12:41:16.876Z,22.30
2019-05-30T12:43:49.393Z,22.30
2019-05-30T12:46:21.971Z,22.20
2019-05-30T12:48:55.263Z,22.10
2019-05-30T12:51:28.108Z,22.00
2019-05-30T12:54:02.481Z,21.80
2019-05-30T12:56:35.793Z,21.80
2019-05-30T12:59:08.977Z,21.80
2019-05-30T13:01:42.894Z,21.90
2019-05-30T13:04:15.692Z,21.90
2019-05-30T13:06:48.959Z,21.90
2019-05-30T13:09:23.574Z,21.80
2019-05-30T13:11:56.436Z,21.80
2019-05-30T13:14:29.413Z,21.80
2019-05-30T13:17:02.255Z,21.70
2019-05-30T13:19:34.835Z,21.70
2019-05-30T13:22:09.646Z,21.80
2019-05-30T13:24:42.850Z,21.90
2019-05-30T13:27:15.782Z,21.90
2019-05-30T13:29:48.543Z,21.90
2019-05-30T13:32:20.778Z,21.90
2019-05-30T13:34:53.162Z,21.90
2019-05-30T13:37:25.621Z,22.10
2019-05-30T13:39:59.272Z,22.20
2019-05-30T13:42:32.028Z,22.20
2019-05-30T13:45:04.564Z,22.20
2019-05-30T13:47:38.155Z,22.30
2019-05-30T13:50:13.799Z,22.30
2019-05-30T13:52:45.643Z,22.40
2019-05-30T13:55:18.060Z,22.50
2019-05-30T13:57:50.450Z,22.60
2019-05-30T14:00:23.948Z,22.70
2019-05-30T14:02:56.222Z,22.80
2019-05-30T14:05:28.249Z,23.00
2019-05-30T14:08:00.347Z,23.00
2019-05-30T14:10:32.635Z,23.20
2019-05-30T14:13:04.777Z,23.20
2019-05-30T14:15:36.941Z,23.40
2019-05-30T14:18:09.136Z,23.50
2019-05-30T14:20:41.114Z,23.60
2019-05-30T14:23:13.258Z,23.70
2019-05-30T14:25:45.761Z,23.70
2019-05-30T14:28:17.894Z,23.70
2019-05-30T14:30:50.328Z,23.80
2019-05-30T14:33:22.447Z,23.80
2019-05-30T14:35:54.717Z,23.80
2019-05-30T14:38:27.242Z,23.70
2019-05-30T14:40:59.599Z,23.70
2019-05-30T14:43:32.116Z,23.70
2019-05-30T14:46:04.539Z,23.40
2019-05-30T14:48:36.982Z,23.30
2019-05-30T14:51:09.139Z,23.20
2019-05-30T14:53:41.292Z,23.00
2019-05-30T14:56:13.689Z,23.00
2019-05-30T14:58:46.331Z,22.90
2019-05-30T15:01:19.076Z,22.70
2019-05-30T15:03:51.852Z,22.80
2019-05-30T15:06:25.392Z,22.80
2019-05-30T15:09:14.080Z,22.80
2019-05-30T15:11:32.615Z,22.90
2019-05-30T15:14:06.674Z,22.80
2019-05-30T15:16:39.654Z,22.60
2019-05-30T15:19:16.545Z,22.60
2019-05-30T15:21:51.426Z,22.60
2019-05-30T15:24:23.868Z,22.60
2019-05-30T15:26:56.592Z,22.60
2019-05-30T15:29:29.089Z,22.70
2019-05-30T15:32:01.492Z,22.80
2019-05-30T15:34:33.808Z,22.80
2019-05-30T15:37:08.588Z,22.80
2019-05-30T15:39:43.468Z,22.80
2019-05-30T15:42:21.901Z,22.90
2019-05-30T15:44:57.423Z,22.80
2019-05-30T15:47:35.576Z,22.80
2019-05-30T15:50:14.134Z,23.00
2019-05-30T15:52:46.909Z,23.00
2019-05-30T15:55:22.934Z,23.20
2019-05-30T15:58:15.786Z,23.20
2019-05-30T16:01:06.240Z,23.10
2019-05-30T16:03:40.182Z,23.10
2019-05-30T16:06:16.543Z,23.10
2019-05-30T16:08:50.392Z,23.10
2019-05-30T16:11:24.387Z,22.90
2019-05-30T16:14:04.672Z,22.90
2019-05-30T16:16:57.460Z,22.80
2019-05-30T16:19:30.658Z,22.90
2019-05-30T16:22:04.117Z,22.80
2019-05-30T16:24:37.181Z,22.80
2019-05-30T16:27:10.926Z,22.70
2019-05-30T16:29:43.411Z,22.70
2019-05-30T16:32:18.494Z,22.70
2019-05-30T16:34:49.829Z,22.80
2019-05-30T16:37:22.878Z,22.80
2019-05-30T16:40:05.874Z,22.90
2019-05-30T16:42:34.134Z,22.90
2019-05-30T16:45:07.693Z,22.80
2019-05-30T16:47:40.569Z,22.90
2019-05-30T16:50:16.484Z,22.90
2019-05-30T16:52:48.956Z,22.80
2019-05-30T16:55:23.428Z,22.70
2019-05-30T16:57:56.674Z,22.60
2019-05-30T17:00:29.357Z,22.50
2019-05-30T17:03:01.907Z,22.40
2019-05-30T17:05:37.201Z,22.30
2019-05-30T17:08:09.352Z,22.10
2019-05-30T17:10:45.356Z,22.10
2019-05-30T17:13:19.617Z,22.10
2019-05-30T17:15:53.529Z,22.00
2019-05-30T17:18:26.798Z,21.90
2019-05-30T17:21:00.975Z,21.80
2019-05-30T17:23:36.828Z,21.90
2019-05-30T17:26:11.561Z,21.90
2019-05-30T17:28:45.020Z,21.90
2019-05-30T17:31:21.872Z,21.90
2019-05-30T17:33:54.072Z,21.90
2019-05-30T17:36:26.285Z,21.80
2019-05-30T17:38:58.375Z,21.90
2019-05-30T17:41:30.466Z,22.00
2019-05-30T17:44:02.531Z,21.90
2019-05-30T17:46:34.629Z,21.90
2019-05-30T17:49:06.817Z,21.80
2019-05-30T17:51:40.211Z,21.80
2019-05-30T17:54:15.053Z,21.70
2019-05-30T17:56:47.315Z,21.70
2019-05-30T17:59:20.161Z,21.60
2019-05-30T18:01:52.457Z,21.60
2019-05-30T18:04:24.961Z,21.70
2019-05-30T18:06:56.991Z,21.60
2019-05-30T18:09:31.882Z,21.60
2019-05-30T18:12:04.213Z,21.50
2019-05-30T18:14:36.681Z,21.50
2019-05-30T18:17:10.119Z,21.50
2019-05-30T18:19:42.302Z,21.40
2019-05-30T18:22:14.479Z,21.30
2019-05-30T18:24:46.659Z,21.30
2019-05-30T18:27:18.770Z,21.30
2019-05-30T18:29:50.783Z,21.20
2019-05-30T18:32:24.098Z,21.20
2019-05-30T18:34:57.474Z,21.20
2019-05-30T18:37:30.483Z,21.20
2019-05-30T18:40:05.560Z,21.20
2019-05-30T18:42:39.024Z,21.20
2019-05-30T18:45:16.141Z,21.10
2019-05-30T18:47:48.105Z,21.10
2019-05-30T18:50:20.231Z,21.00
2019-05-30T18:52:52.325Z,21.00
2019-05-30T18:55:28.475Z,21.00
2019-05-30T18:58:02.037Z,20.90
2019-05-30T19:00:35.496Z,20.90
2019-05-30T19:03:09.893Z,20.80
2019-05-30T19:05:48.412Z,20.80
2019-05-30T19:08:20.900Z,20.80
2019-05-30T19:10:54.223Z,20.80
2019-05-30T19:13:27.415Z,20.80
2019-05-30T19:16:01.052Z,20.80
2019-05-30T19:18:34.095Z,20.80
2019-05-30T19:21:06.887Z,20.70
2019-05-30T19:23:39.903Z,20.70
2019-05-30T19:26:13.659Z,20.70
2019-05-30T19:28:46.208Z,20.70
2019-05-30T19:31:21.448Z,20.70
2019-05-30T19:33:55.309Z,20.70
2019-05-30T19:36:27.494Z,20.60
2019-05-30T19:38:59.945Z,20.60
2019-05-30T19:41:45.960Z,20.60
2019-05-30T19:44:08.831Z,20.60
2019-05-30T19:46:42.241Z,20.70
2019-05-30T19:49:15.808Z,20.70
2019-05-30T19:51:51.119Z,20.70
2019-05-30T19:54:26.969Z,20.70
2019-05-30T19:56:59.477Z,20.70
2019-05-30T19:59:33.767Z,20.70
2019-05-30T20:02:06.752Z,20.70
2019-05-30T20:04:40.608Z,20.70
2019-05-30T20:07:14.387Z,20.70
2019-05-30T20:10:00.540Z,20.70
2019-05-30T20:12:22.246Z,20.70
2019-05-30T20:14:55.445Z,20.60
2019-05-30T20:17:31.501Z,20.40
2019-05-30T20:20:06.229Z,20.30
2019-05-30T20:22:38.364Z,20.30
2019-05-30T20:25:11.514Z,20.30
2019-05-30T20:27:44.077Z,20.20
2019-05-30T20:30:16.642Z,20.20
2019-05-30T20:32:49.576Z,20.10
2019-05-30T20:35:22.194Z,20.10
2019-05-30T20:37:55.406Z,20.10
2019-05-30T20:40:28.294Z,20.10
2019-05-30T20:43:00.881Z,20.10
2019-05-30T20:45:38.357Z,20.20
2019-05-30T20:48:08.596Z,20.20
2019-05-30T20:50:43.250Z,20.10
2019-05-30T20:53:15.442Z,20.10
2019-05-30T20:55:47.612Z,20.10
2019-05-30T20:58:19.851Z,20.10
2019-05-30T21:00:52.072Z,20.10
2019-05-30T21:03:24.166Z,20.10
2019-05-30T21:06:01.095Z,20.10
2019-05-30T21:08:34.823Z,20.10
2019-05-30T21:11:08.959Z,20.10
2019-05-30T21:13:42.642Z,20.10
2019-05-30T21:16:16.821Z,20.10
2019-05-30T21:18:48.977Z,20.10
2019-05-30T21:21:21.193Z,20.10
2019-05-30T21:23:53.352Z,20.10
2019-05-30T21:26:25.663Z,20.00
2019-05-30T21:28:58.165Z,20.00
2019-05-30T21:31:31.322Z,20.00
2019-05-30T21:34:03.477Z,20.00
2019-05-30T21:36:35.681Z,20.00
2019-05-30T21:39:08.729Z,20.00
2019-05-30T21:41:42.178Z,20.00
2019-05-30T21:44:14.398Z,20.00
2019-05-30T21:46:46.816Z,20.00
2019-05-30T21:49:19.096Z,20.00
2019-05-30T21:51:51.422Z,19.90
2019-05-30T21:54:23.514Z,19.90
2019-05-30T21:56:55.658Z,19.90
2019-05-30T21:59:27.674Z,19.90
2019-05-30T22:01:59.868Z,19.90
2019-05-30T22:04:32.041Z,19.90
2019-05-30T22:07:04.204Z,19.90
2019-05-30T22:09:36.323Z,19.90
2019-05-30T22:12:08.465Z,19.80
2019-05-30T22:14:41.700Z,19.80
2019-05-30T22:17:13.943Z,19.80
2019-05-30T22:19:46.042Z,19.80
2019-05-30T22:22:18.055Z,19.80
2019-05-30T22:24:50.357Z,19.80
2019-05-30T22:27:22.456Z,19.80
2019-05-30T22:29:54.503Z,19.80
2019-05-30T22:32:26.579Z,19.80
2019-05-30T22:34:58.681Z,19.70
2019-05-30T22:37:30.617Z,19.70
2019-05-30T22:40:02.765Z,19.70
2019-05-30T22:42:36.063Z,19.70
2019-05-30T22:45:08.230Z,19.70
2019-05-30T22:47:40.260Z,19.70
2019-05-30T22:50:13.753Z,19.70
2019-05-30T22:52:46.832Z,19.70
2019-05-30T22:55:19.038Z,19.70
2019-05-30T22:57:51.164Z,19.70
2019-05-30T23:00:23.374Z,19.60
2019-05-30T23:02:56.108Z,19.70
2019-05-30T23:05:28.201Z,19.60
2019-05-30T23:08:00.278Z,19.60
2019-05-30T23:10:32.361Z,19.60
2019-05-30T23:13:05.005Z,19.60
2019-05-30T23:15:37.321Z,19.60
2019-05-30T23:18:09.359Z,19.60
2019-05-30T23:20:41.523Z,19.60
2019-05-30T23:23:13.720Z,19.60
2019-05-30T23:25:45.616Z,19.60
2019-05-30T23:28:17.825Z,19.60
2019-05-30T23:30:50.323Z,19.60
2019-05-30T23:33:22.530Z,19.60
2019-05-30T23:35:54.689Z,19.60
2019-05-30T23:38:26.788Z,19.40
2019-05-30T23:40:59.253Z,19.40
2019-05-30T23:43:31.648Z,19.50
2019-05-30T23:46:03.615Z,19.50
2019-05-30T23:48:35.726Z,19.50
2019-05-30T23:51:07.818Z,19.50
2019-05-30T23:53:39.948Z,19.50
2019-05-30T23:56:11.960Z,19.40
2019-05-30T23:58:44.068Z,19.30
